createdAt,value
2018-02-13T00:01:11.034Z,11.53
2018-02-13T00:03:38.719Z,13.23
2018-02-13T00:06:06.326Z,13.33
2018-02-13T00:08:33.962Z,13.20
2018-02-13T00:11:01.598Z,16.33
2018-02-13T00:13:29.252Z,11.17
2018-02-13T00:19:14.836Z,11.93
2018-02-13T00:21:42.462Z,11.23
2018-02-13T00:24:10.877Z,14.77
2018-02-13T00:26:38.517Z,11.73
2018-02-13T00:29:06.133Z,12.33
2018-02-13T00:31:33.788Z,12.33
2018-02-13T00:34:01.438Z,13.60
2018-02-13T00:36:29.117Z,13.33
2018-02-13T00:38:57.543Z,11.80
2018-02-13T00:41:25.163Z,13.37
2018-02-13T00:43:52.808Z,13.87
2018-02-13T00:46:20.450Z,13.20
2018-02-13T00:48:48.872Z,16.27
2018-02-13T00:51:16.530Z,12.97
2018-02-13T00:53:44.212Z,12.13
2018-02-13T00:56:11.830Z,12.97
2018-02-13T00:58:39.505Z,11.43
2018-02-13T01:01:07.191Z,12.87
2018-02-13T01:03:34.857Z,12.93
2018-02-13T01:06:02.470Z,14.10
2018-02-13T01:08:30.135Z,13.60
2018-02-13T01:10:58.523Z,15.20
2018-02-13T01:13:26.966Z,11.27
2018-02-13T01:15:54.630Z,12.17
2018-02-13T01:18:22.266Z,12.80
2018-02-13T01:20:50.698Z,15.30
2018-02-13T01:23:18.325Z,14.47
2018-02-13T01:25:46.723Z,11.43
2018-02-13T01:28:14.366Z,13.43
2018-02-13T01:30:41.990Z,13.03
2018-02-13T01:33:09.681Z,11.87
2018-02-13T01:35:37.317Z,15.13
2018-02-13T01:38:05.747Z,14.93
2018-02-13T01:40:33.428Z,13.90
2018-02-13T01:43:01.063Z,13.33
2018-02-13T01:45:29.484Z,10.87
2018-02-13T01:47:57.116Z,11.23
2018-02-13T01:50:25.626Z,12.50
2018-02-13T01:52:53.266Z,14.10
2018-02-13T01:55:20.948Z,14.13
2018-02-13T01:57:48.606Z,11.87
2018-02-13T02:00:16.235Z,12.40
2018-02-13T02:02:43.895Z,12.00
2018-02-13T02:05:12.266Z,13.33
2018-02-13T02:07:39.918Z,12.67
2018-02-13T02:10:07.582Z,11.40
2018-02-13T02:12:35.246Z,10.83
2018-02-13T02:15:02.927Z,11.40
2018-02-13T02:17:30.566Z,10.03
2018-02-13T02:19:58.256Z,13.73
2018-02-13T02:22:25.923Z,10.63
2018-02-13T02:24:53.552Z,11.90
2018-02-13T02:27:21.239Z,13.27
2018-02-13T02:29:49.639Z,11.67
2018-02-13T02:32:18.099Z,10.57
2018-02-13T02:34:45.726Z,12.90
2018-02-13T02:37:13.368Z,11.10
2018-02-13T02:39:41.024Z,12.97
2018-02-13T02:42:08.663Z,10.80
2018-02-13T02:44:36.323Z,13.50
2018-02-13T02:47:04.760Z,12.80
2018-02-13T02:49:32.386Z,11.30
2018-02-13T02:52:00.057Z,10.80
2018-02-13T02:54:27.696Z,11.90
2018-02-13T02:56:56.138Z,11.00
2018-02-13T02:59:23.775Z,11.23
2018-02-13T03:01:52.178Z,10.07
2018-02-13T03:04:20.601Z,11.23
2018-02-13T03:06:48.263Z,11.50
2018-02-13T03:09:15.902Z,11.67
2018-02-13T03:11:43.589Z,14.07
2018-02-13T03:14:12.000Z,11.53
2018-02-13T03:16:39.673Z,10.87
2018-02-13T03:19:07.313Z,13.13
2018-02-13T03:21:34.966Z,10.67
2018-02-13T03:24:02.606Z,10.93
2018-02-13T03:26:30.247Z,13.13
2018-02-13T03:28:58.671Z,10.50
2018-02-13T03:31:26.306Z,14.57
2018-02-13T03:33:53.962Z,11.97
2018-02-13T03:36:21.622Z,10.77
2018-02-13T03:38:49.257Z,14.70
2018-02-13T03:41:16.939Z,12.93
2018-02-13T03:43:44.581Z,12.80
2018-02-13T03:46:12.230Z,11.90
2018-02-13T03:48:39.874Z,13.00
2018-02-13T03:51:07.508Z,10.40
2018-02-13T03:53:35.979Z,10.87
2018-02-13T03:56:03.614Z,11.10
2018-02-13T03:58:31.247Z,9.97
2018-02-13T04:00:58.905Z,12.37
2018-02-13T04:03:26.564Z,11.87
2018-02-13T04:05:54.237Z,11.67
2018-02-13T04:08:21.901Z,11.40
2018-02-13T04:10:49.551Z,11.40
2018-02-13T04:13:17.205Z,10.50
2018-02-13T04:15:45.636Z,9.77
2018-02-13T04:18:13.254Z,11.43
2018-02-13T04:20:40.899Z,12.53
2018-02-13T04:23:08.535Z,10.93
2018-02-13T04:25:36.176Z,10.87
2018-02-13T04:28:04.594Z,11.23
2018-02-13T04:30:32.239Z,10.37
2018-02-13T04:32:59.894Z,10.30
2018-02-13T04:35:27.494Z,10.13
2018-02-13T04:37:55.910Z,10.50
2018-02-13T04:40:23.564Z,10.20
2018-02-13T04:42:51.951Z,12.10
2018-02-13T04:45:20.358Z,12.03
2018-02-13T04:47:48.004Z,10.73
2018-02-13T04:50:15.690Z,12.40
2018-02-13T04:52:44.150Z,13.13
2018-02-13T04:55:11.807Z,12.80
2018-02-13T04:57:39.462Z,12.33
2018-02-13T05:00:07.241Z,12.47
2018-02-13T05:02:34.902Z,12.93
2018-02-13T05:05:03.336Z,11.80
2018-02-13T05:07:31.061Z,12.33
2018-02-13T05:09:58.808Z,11.57
2018-02-13T05:12:26.447Z,14.43
2018-02-13T05:14:54.128Z,12.70
2018-02-13T05:17:21.810Z,11.97
2018-02-13T05:19:49.446Z,10.80
2018-02-13T05:22:17.855Z,12.50
2018-02-13T05:24:45.466Z,12.40
2018-02-13T05:27:13.095Z,11.40
2018-02-13T05:29:40.758Z,13.40
2018-02-13T05:32:08.415Z,13.87
2018-02-13T05:34:36.853Z,11.77
2018-02-13T05:37:04.500Z,13.30
2018-02-13T05:39:32.118Z,13.33
2018-02-13T05:42:00.566Z,10.97
2018-02-13T05:44:28.186Z,10.10
2018-02-13T05:46:55.859Z,12.57
2018-02-13T05:49:23.643Z,11.87
2018-02-13T05:51:51.294Z,14.73
2018-02-13T05:54:18.934Z,12.13
2018-02-13T05:56:47.350Z,12.77
2018-02-13T05:59:15.008Z,12.10
2018-02-13T06:01:42.630Z,13.13
2018-02-13T06:04:10.562Z,11.17
2018-02-13T06:06:38.239Z,15.33
2018-02-13T06:09:05.890Z,13.37
2018-02-13T06:11:33.555Z,13.00
2018-02-13T06:14:01.347Z,13.20
2018-02-13T06:16:29.763Z,13.07
2018-02-13T06:18:57.416Z,13.43
2018-02-13T06:21:25.800Z,12.40
2018-02-13T06:23:55.052Z,11.50
2018-02-13T06:26:22.674Z,13.67
2018-02-13T06:28:51.132Z,12.47
2018-02-13T06:31:18.792Z,12.53
2018-02-13T06:33:46.505Z,11.00
2018-02-13T06:36:14.196Z,13.33
2018-02-13T06:38:41.794Z,12.00
2018-02-13T06:41:10.202Z,12.40
2018-02-13T06:43:37.815Z,12.07
2018-02-13T06:46:05.486Z,13.00
2018-02-13T06:48:33.157Z,11.17
2018-02-13T06:51:00.766Z,11.80
2018-02-13T06:53:29.195Z,15.37
2018-02-13T06:55:56.811Z,12.47
2018-02-13T06:58:24.463Z,12.30
2018-02-13T07:00:52.193Z,13.73
2018-02-13T07:03:20.566Z,11.77
2018-02-13T07:05:48.220Z,12.23
2018-02-13T07:08:15.822Z,14.77
2018-02-13T07:10:44.226Z,13.77
2018-02-13T07:13:12.637Z,12.73
2018-02-13T07:15:40.271Z,11.17
2018-02-13T07:18:07.974Z,13.50
2018-02-13T07:20:35.620Z,13.43
2018-02-13T07:23:03.290Z,14.70
2018-02-13T07:25:30.945Z,14.37
2018-02-13T07:27:58.784Z,13.50
2018-02-13T07:30:26.439Z,11.03
2018-02-13T07:32:54.843Z,15.27
2018-02-13T07:35:22.490Z,14.03
2018-02-13T07:37:50.915Z,13.30
2018-02-13T07:40:18.518Z,13.30
2018-02-13T07:42:46.180Z,12.50
2018-02-13T07:45:13.831Z,13.70
2018-02-13T07:47:41.479Z,14.03
2018-02-13T07:50:09.137Z,13.10
2018-02-13T07:52:36.779Z,13.63
2018-02-13T07:55:04.470Z,12.93
2018-02-13T07:57:32.115Z,13.10
2018-02-13T07:59:59.787Z,10.60
2018-02-13T08:02:27.480Z,12.27
2018-02-13T08:04:55.138Z,11.03
2018-02-13T08:07:22.864Z,10.70
2018-02-13T08:09:50.489Z,10.63
2018-02-13T08:12:18.178Z,10.50
2018-02-13T08:14:45.859Z,11.00
2018-02-13T08:17:13.843Z,10.03
2018-02-13T08:19:41.518Z,10.80
2018-02-13T08:22:09.150Z,12.37
2018-02-13T08:24:37.614Z,11.50
2018-02-13T08:27:05.270Z,9.50
2018-02-13T08:29:33.751Z,10.73
2018-02-13T08:32:01.393Z,10.63
2018-02-13T08:34:29.033Z,10.90
2018-02-13T08:36:56.691Z,10.70
2018-02-13T08:39:24.411Z,9.67
2018-02-13T08:41:52.798Z,12.93
2018-02-13T08:44:20.446Z,9.87
2018-02-13T08:46:48.084Z,10.80
2018-02-13T08:49:15.994Z,10.80
2018-02-13T08:51:43.624Z,9.27
2018-02-13T08:54:11.256Z,9.33
2018-02-13T08:56:39.686Z,10.30
2018-02-13T08:59:07.341Z,9.77
2018-02-13T09:01:35.357Z,10.93
2018-02-13T09:04:03.014Z,9.63
2018-02-13T09:06:30.819Z,8.83
2018-02-13T09:08:58.475Z,9.67
2018-02-13T09:11:26.138Z,8.93
2018-02-13T09:13:53.769Z,9.77
2018-02-13T09:16:21.433Z,9.63
2018-02-13T09:18:49.126Z,10.47
2018-02-13T09:21:16.758Z,10.13
2018-02-13T09:23:44.439Z,11.47
2018-02-13T09:26:12.058Z,10.40
2018-02-13T09:28:40.483Z,9.30
2018-02-13T09:31:08.150Z,9.67
2018-02-13T09:33:35.775Z,9.80
2018-02-13T09:36:03.446Z,9.97
2018-02-13T09:38:31.093Z,9.70
2018-02-13T09:40:59.702Z,10.13
2018-02-13T09:43:27.346Z,10.90
2018-02-13T09:45:54.962Z,10.60
2018-02-13T09:48:22.614Z,13.87
2018-02-13T09:57:02.167Z,11.60
2018-02-13T09:59:29.817Z,11.67
2018-02-13T10:01:57.460Z,12.57
2018-02-13T10:04:25.090Z,10.43
2018-02-13T10:06:52.728Z,10.33
2018-02-13T10:09:21.514Z,10.57
2018-02-13T10:11:49.148Z,8.50
2018-02-13T10:14:16.826Z,9.50
2018-02-13T10:16:44.489Z,10.33
2018-02-13T10:19:12.752Z,12.30
2018-02-13T10:21:40.448Z,8.97
2018-02-13T10:24:08.099Z,15.53
2018-02-13T10:26:35.725Z,10.70
2018-02-13T10:29:04.151Z,9.47
2018-02-13T10:31:31.820Z,10.00
2018-02-13T10:33:59.450Z,8.93
2018-02-13T10:36:27.125Z,7.70
2018-02-13T10:38:54.792Z,10.30
2018-02-13T10:41:22.412Z,7.97
2018-02-13T10:43:50.197Z,9.30
2018-02-13T10:46:17.865Z,11.23
2018-02-13T10:48:45.487Z,10.90
2018-02-13T10:51:13.135Z,6.17
2018-02-13T10:53:40.796Z,6.27
2018-02-13T10:56:08.402Z,6.33
2018-02-13T10:58:36.074Z,8.23
2018-02-13T11:01:09.396Z,7.10
2018-02-13T11:03:37.043Z,6.27
2018-02-13T11:06:04.730Z,6.33
2018-02-13T11:08:32.343Z,5.17
2018-02-13T11:11:00.771Z,5.10
2018-02-13T11:13:28.431Z,4.77
2018-02-13T11:15:57.798Z,4.53
2018-02-13T11:18:25.453Z,4.23
2018-02-13T11:20:53.180Z,4.33
2018-02-13T11:23:21.563Z,5.40
2018-02-13T11:25:49.982Z,4.83
2018-02-13T11:28:22.399Z,6.50
2018-02-13T11:30:50.076Z,5.17
2018-02-13T11:33:17.761Z,5.03
2018-02-13T11:35:45.389Z,4.53
2018-02-13T11:38:13.071Z,4.73
2018-02-13T11:40:40.726Z,5.57
2018-02-13T11:43:09.117Z,5.67
2018-02-13T11:45:36.738Z,4.83
2018-02-13T11:48:04.462Z,6.13
2018-02-13T11:50:32.126Z,5.53
2018-02-13T11:52:59.763Z,6.10
2018-02-13T11:55:27.427Z,5.00
2018-02-13T11:57:55.068Z,6.03
2018-02-13T12:00:22.785Z,4.20
2018-02-13T12:02:50.417Z,4.43
2018-02-13T12:05:18.046Z,6.37
2018-02-13T12:07:45.722Z,4.40
2018-02-13T12:10:13.783Z,6.47
2018-02-13T12:12:41.412Z,8.20
2018-02-13T12:15:09.855Z,5.87
2018-02-13T12:17:37.498Z,4.57
2018-02-13T12:20:05.126Z,5.33
2018-02-13T12:22:32.788Z,4.07
2018-02-13T12:25:00.472Z,4.90
2018-02-13T12:27:28.202Z,4.30
2018-02-13T12:29:55.875Z,3.87
2018-02-13T12:32:23.534Z,5.03
2018-02-13T12:34:51.205Z,5.37
2018-02-13T12:37:19.639Z,3.97
2018-02-13T12:39:47.314Z,4.70
2018-02-13T12:42:14.959Z,4.87
2018-02-13T12:44:42.614Z,5.13
2018-02-13T12:47:11.039Z,6.97
2018-02-13T12:49:38.658Z,4.47
2018-02-13T12:52:06.335Z,3.77
2018-02-13T12:54:34.009Z,3.03
2018-02-13T12:57:01.651Z,5.03
2018-02-13T12:59:29.367Z,3.33
2018-02-13T13:01:57.014Z,3.93
2018-02-13T13:04:24.675Z,3.57
2018-02-13T13:06:52.407Z,5.93
2018-02-13T13:09:20.831Z,3.93
2018-02-13T13:11:48.452Z,6.20
2018-02-13T13:14:16.148Z,4.77
2018-02-13T13:16:44.563Z,5.77
2018-02-13T13:19:12.181Z,6.23
2018-02-13T13:21:39.891Z,4.20
2018-02-13T13:24:08.351Z,4.57
2018-02-13T13:26:35.967Z,2.77
2018-02-13T13:29:04.399Z,3.20
2018-02-13T13:31:32.031Z,5.37
2018-02-13T13:34:00.423Z,5.17
2018-02-13T13:36:28.872Z,4.60
2018-02-13T13:38:56.533Z,4.40
2018-02-13T13:41:24.136Z,4.00
2018-02-13T13:43:51.852Z,5.47
2018-02-13T13:46:19.536Z,3.53
2018-02-13T13:48:47.167Z,2.90
2018-02-13T13:51:14.888Z,5.53
2018-02-13T13:53:42.531Z,3.83
2018-02-13T13:56:10.951Z,3.77
2018-02-13T13:58:38.603Z,3.73
2018-02-13T14:01:07.049Z,2.63
2018-02-13T14:03:34.679Z,3.53
2018-02-13T14:06:02.351Z,4.43
2018-02-13T14:08:30.011Z,3.67
2018-02-13T14:10:58.394Z,4.40
2018-02-13T14:13:26.022Z,3.80
2018-02-13T14:15:53.668Z,3.40
2018-02-13T14:18:21.320Z,5.50
2018-02-13T14:20:50.644Z,4.50
2018-02-13T14:23:19.163Z,2.37
2018-02-13T14:25:47.002Z,3.47
2018-02-13T14:28:14.680Z,3.63
2018-02-13T14:30:43.154Z,3.33
2018-02-13T14:33:18.534Z,3.60
2018-02-13T14:35:46.586Z,2.70
2018-02-13T14:38:15.028Z,5.00
2018-02-13T14:49:48.145Z,4.43
2018-02-13T14:52:15.819Z,4.80
2018-02-13T14:54:43.479Z,5.47
2018-02-13T14:57:11.872Z,3.73
2018-02-13T14:59:40.305Z,4.53
2018-02-13T15:02:07.955Z,2.83
2018-02-13T15:04:36.532Z,3.50
2018-02-13T15:07:04.972Z,3.40
2018-02-13T15:09:32.610Z,4.17
2018-02-13T15:12:00.262Z,4.87
2018-02-13T15:14:27.949Z,5.00
2018-02-13T15:16:58.912Z,4.77
2018-02-13T15:19:26.559Z,3.90
2018-02-13T15:21:54.208Z,3.57
2018-02-13T15:24:21.863Z,6.80
2018-02-13T15:26:49.461Z,3.17
2018-02-13T15:29:17.091Z,5.20
2018-02-13T15:31:44.795Z,3.53
2018-02-13T15:34:12.428Z,3.23
2018-02-13T15:36:40.843Z,3.53
2018-02-13T15:39:08.535Z,3.90
2018-02-13T15:41:37.027Z,4.23
2018-02-13T15:44:04.683Z,3.97
2018-02-13T15:46:32.363Z,3.97
2018-02-13T15:48:59.986Z,4.73
2018-02-13T15:51:27.852Z,3.13
2018-02-13T15:53:56.312Z,3.37
2018-02-13T15:56:23.922Z,4.57
2018-02-13T15:58:51.585Z,3.60
2018-02-13T16:01:19.323Z,3.57
2018-02-13T16:03:46.944Z,3.47
2018-02-13T16:06:14.918Z,4.63
2018-02-13T16:08:42.618Z,4.00
2018-02-13T16:11:10.228Z,3.30
2018-02-13T16:13:37.907Z,5.40
2018-02-13T16:16:05.608Z,3.93
2018-02-13T16:18:33.228Z,3.20
2018-02-13T16:21:01.706Z,3.10
2018-02-13T16:23:29.317Z,3.80
2018-02-13T16:25:57.012Z,3.03
2018-02-13T16:28:26.710Z,3.57
2018-02-13T16:30:54.363Z,5.10
2018-02-13T16:33:22.796Z,3.27
2018-02-13T16:35:51.258Z,3.43
2018-02-13T16:38:18.921Z,6.07
2018-02-13T16:40:47.321Z,2.83
2018-02-13T16:43:15.322Z,3.80
2018-02-13T16:45:43.091Z,4.77
2018-02-13T16:48:10.723Z,3.43
2018-02-13T16:50:38.376Z,4.57
2018-02-13T16:53:06.187Z,3.33
2018-02-13T16:55:33.789Z,4.77
2018-02-13T16:58:01.446Z,3.63
2018-02-13T17:00:30.448Z,5.10
2018-02-13T17:02:58.847Z,6.10
2018-02-13T17:05:27.255Z,5.47
2018-02-13T17:07:54.911Z,9.00
2018-02-13T17:10:23.707Z,5.37
2018-02-13T17:12:51.386Z,5.43
2018-02-13T17:15:19.796Z,9.30
2018-02-13T17:17:47.411Z,7.90
2018-02-13T17:20:15.079Z,4.77
2018-02-13T17:22:42.732Z,5.67
2018-02-13T17:25:10.338Z,4.50
2018-02-13T17:27:37.991Z,3.63
2018-02-13T17:30:05.643Z,4.03
2018-02-13T17:32:33.316Z,4.97
2018-02-13T17:35:01.006Z,5.67
2018-02-13T17:37:28.682Z,6.70
2018-02-13T17:39:56.329Z,4.67
2018-02-13T17:42:24.754Z,2.93
2018-02-13T17:44:52.467Z,3.53
2018-02-13T17:47:20.079Z,3.83
2018-02-13T17:49:47.710Z,4.20
2018-02-13T17:52:15.367Z,4.37
2018-02-13T17:54:42.997Z,2.77
2018-02-13T17:57:10.650Z,5.97
2018-02-13T17:59:39.127Z,4.23
2018-02-13T18:02:06.757Z,5.93
2018-02-13T18:04:34.421Z,5.80
2018-02-13T18:07:21.807Z,4.30
2018-02-13T18:09:49.475Z,4.40
2018-02-13T18:12:17.135Z,3.50
2018-02-13T18:14:44.754Z,4.67
2018-02-13T18:17:13.167Z,7.57
2018-02-13T18:19:41.042Z,4.90
2018-02-13T18:22:08.671Z,3.93
2018-02-13T18:24:36.303Z,3.77
2018-02-13T18:27:03.978Z,4.60
2018-02-13T18:29:31.604Z,3.50
2018-02-13T18:31:59.247Z,4.77
2018-02-13T18:34:26.912Z,4.83
2018-02-13T18:36:54.570Z,6.00
2018-02-13T18:39:22.251Z,5.27
2018-02-13T18:41:49.944Z,6.37
2018-02-13T18:44:17.572Z,6.97
2018-02-13T18:46:45.973Z,8.07
2018-02-13T18:49:14.635Z,6.13
2018-02-13T18:51:42.387Z,6.37
2018-02-13T18:54:10.015Z,5.17
2018-02-13T18:56:38.474Z,5.33
2018-02-13T18:59:06.104Z,5.57
2018-02-13T19:01:53.783Z,5.50
2018-02-13T19:04:21.465Z,5.00
2018-02-13T19:12:49.815Z,3.80
2018-02-13T19:15:17.576Z,5.10
2018-02-13T19:17:45.181Z,5.80
2018-02-13T19:20:12.824Z,6.27
2018-02-13T19:22:40.643Z,5.03
2018-02-13T19:25:08.330Z,5.80
2018-02-13T19:33:29.491Z,5.03
2018-02-13T19:35:57.155Z,8.17
2018-02-13T19:38:24.811Z,5.80
2018-02-13T19:40:53.061Z,7.47
2018-02-13T19:43:20.723Z,5.27
2018-02-13T19:45:48.332Z,5.93
2018-02-13T19:48:16.755Z,6.07
2018-02-13T19:50:44.408Z,5.77
2018-02-13T19:53:12.052Z,7.77
2018-02-13T19:55:39.739Z,5.57
2018-02-13T19:58:08.188Z,6.07
2018-02-13T20:00:35.829Z,6.70
2018-02-13T20:03:04.246Z,7.27
2018-02-13T20:05:32.141Z,6.83
2018-02-13T20:08:04.287Z,5.40
2018-02-13T20:10:31.953Z,6.40
2018-02-13T20:13:00.367Z,5.07
2018-02-13T20:15:28.034Z,4.53
2018-02-13T20:17:55.744Z,6.97
2018-02-13T20:20:23.407Z,6.97
2018-02-13T20:22:51.092Z,5.83
2018-02-13T20:25:18.734Z,8.53
2018-02-13T20:27:46.351Z,8.33
2018-02-13T20:30:14.029Z,8.07
2018-02-13T20:32:41.648Z,6.63
2018-02-13T20:35:09.331Z,6.43
2018-02-13T20:37:36.991Z,5.60
2018-02-13T20:40:05.580Z,8.47
2018-02-13T20:42:33.248Z,5.60
2018-02-13T20:45:01.614Z,7.43
2018-02-13T20:47:29.265Z,7.07
2018-02-13T20:49:56.920Z,6.40
2018-02-13T20:52:24.560Z,6.43
2018-02-13T20:54:52.971Z,7.47
2018-02-13T20:57:20.611Z,6.70
2018-02-13T20:59:48.438Z,6.50
2018-02-13T21:02:16.088Z,8.90
2018-02-13T21:04:43.741Z,7.90
2018-02-13T21:07:11.662Z,6.53
2018-02-13T21:12:40.676Z,5.23
2018-02-13T21:15:09.106Z,6.20
2018-02-13T21:17:36.765Z,5.03
2018-02-13T21:20:04.497Z,8.57
2018-02-13T21:22:32.159Z,4.87
2018-02-13T21:24:59.813Z,5.73
2018-02-13T21:27:27.470Z,6.63
2018-02-13T21:29:55.121Z,7.40
2018-02-13T21:32:23.555Z,6.67
2018-02-13T21:34:51.360Z,9.23
2018-02-13T21:37:27.552Z,7.00
2018-02-13T21:39:55.263Z,6.27
2018-02-13T21:42:22.907Z,6.50
2018-02-13T21:44:51.364Z,7.83
2018-02-13T21:47:19.317Z,5.77
2018-02-13T21:49:47.030Z,7.63
2018-02-13T21:52:14.665Z,6.13
2018-02-13T21:54:42.283Z,8.63
2018-02-13T21:57:10.003Z,5.37
2018-02-13T21:59:38.625Z,5.63
2018-02-13T22:02:07.010Z,6.43
2018-02-13T22:04:34.611Z,4.70
2018-02-13T22:07:02.191Z,6.03
2018-02-13T22:09:30.012Z,7.03
2018-02-13T22:11:57.656Z,6.63
2018-02-13T22:14:25.270Z,6.43
2018-02-13T22:16:52.871Z,5.90
2018-02-13T22:19:20.881Z,7.17
2018-02-13T22:21:48.482Z,9.97
2018-02-13T22:24:16.861Z,8.10
2018-02-13T22:26:44.471Z,7.37
2018-02-13T22:29:12.079Z,7.93
2018-02-13T22:31:39.999Z,6.70
2018-02-13T22:34:07.687Z,6.90
2018-02-13T22:36:36.025Z,6.73
2018-02-13T22:39:13.978Z,7.93
2018-02-13T22:41:42.849Z,6.57
2018-02-13T22:44:11.274Z,8.87
2018-02-13T22:46:40.158Z,6.53
2018-02-13T22:49:07.734Z,7.20
2018-02-13T22:51:36.142Z,6.93
2018-02-13T22:54:04.513Z,7.67
2018-02-13T22:56:32.259Z,7.20
2018-02-13T22:58:59.869Z,7.83
2018-02-13T23:01:27.451Z,8.73
2018-02-13T23:03:55.825Z,10.43
2018-02-13T23:06:23.434Z,7.13
2018-02-13T23:08:51.009Z,6.13
2018-02-13T23:11:18.609Z,5.40
2018-02-13T23:13:46.333Z,6.20
2018-02-13T23:16:13.980Z,7.50
2018-02-13T23:18:41.627Z,6.93
2018-02-13T23:21:09.209Z,10.73
2018-02-13T23:23:36.807Z,9.43
2018-02-13T23:26:04.391Z,6.70
2018-02-13T23:28:31.998Z,9.67
2018-02-13T23:30:59.624Z,8.30
2018-02-13T23:33:27.195Z,7.57
2018-02-13T23:35:54.794Z,6.90
2018-02-13T23:38:22.363Z,7.13
2018-02-13T23:40:49.968Z,6.53
2018-02-13T23:43:19.446Z,7.37
2018-02-13T23:45:47.014Z,6.03
2018-02-13T23:48:14.645Z,8.63
2018-02-13T23:50:42.277Z,6.50
2018-02-13T23:53:09.887Z,5.93
2018-02-13T23:55:37.497Z,7.03
2018-02-13T23:58:05.070Z,6.90
